sensor_id;sensor_type;location;lat;lon;timestamp;temperature;humidity
1307;DHT22;646;48.696;9.114;2022-11-18T00:08:13;7.90;99.90
1307;DHT22;646;48.696;9.114;2022-11-18T00:10:38;8.00;99.90
1307;DHT22;646;48.696;9.114;2022-11-18T00:13:03;7.90;99.90
1307;DHT22;646;48.696;9.114;2022-11-18T00:15:48;7.90;99.90
1307;DHT22;646;48.696;9.114;2022-11-18T00:18:13;7.90;99.90
1307;DHT22;646;48.696;9.114;2022-11-18T00:20:39;7.60;99.90
1307;DHT22;646;48.696;9.114;2022-11-18T00:23:04;8.00;99.90
1307;DHT22;646;48.696;9.114;2022-11-18T00:25:30;7.50;99.90
1307;DHT22;646;48.696;9.114;2022-11-18T00:27:55;8.30;99.90
1307;DHT22;646;48.696;9.114;2022-11-18T00:30:21;7.50;99.90
1307;DHT22;646;48.696;9.114;2022-11-18T00:32:46;7.60;99.90
1307;DHT22;646;48.696;9.114;2022-11-18T00:35:12;8.20;99.90
1307;DHT22;646;48.696;9.114;2022-11-18T00:37:37;8.20;99.90
1307;DHT22;646;48.696;9.114;2022-11-18T00:40:03;8.10;99.90
1307;DHT22;646;48.696;9.114;2022-11-18T00:42:29;8.20;99.90
1307;DHT22;646;48.696;9.114;2022-11-18T00:45:13;7.90;99.90
1307;DHT22;646;48.696;9.114;2022-11-18T00:47:38;8.00;99.90
1307;DHT22;646;48.696;9.114;2022-11-18T00:50:04;8.20;99.90
1307;DHT22;646;48.696;9.114;2022-11-18T00:52:30;8.10;99.90
1307;DHT22;646;48.696;9.114;2022-11-18T00:54:55;8.30;99.90
1307;DHT22;646;48.696;9.114;2022-11-18T00:57:21;8.00;99.90
1307;DHT22;646;48.696;9.114;2022-11-18T00:59:46;8.00;99.90
1307;DHT22;646;48.696;9.114;2022-11-18T01:02:12;8.20;99.90
1307;DHT22;646;48.696;9.114;2022-11-18T01:04:37;7.90;99.90
1307;DHT22;646;48.696;9.114;2022-11-18T01:07:03;8.00;99.90
1307;DHT22;646;48.696;9.114;2022-11-18T01:09:28;8.20;99.90
1307;DHT22;646;48.696;9.114;2022-11-18T01:11:54;8.10;99.90
1307;DHT22;646;48.696;9.114;2022-11-18T01:14:38;8.00;99.90
1307;DHT22;646;48.696;9.114;2022-11-18T01:17:04;7.60;99.90
1307;DHT22;646;48.696;9.114;2022-11-18T01:19:29;8.10;99.90
1307;DHT22;646;48.696;9.114;2022-11-18T01:21:55;8.10;99.90
1307;DHT22;646;48.696;9.114;2022-11-18T01:24:36;8.00;99.90
1307;DHT22;646;48.696;9.114;2022-11-18T01:27:02;8.30;99.90
1307;DHT22;646;48.696;9.114;2022-11-18T01:29:28;8.10;99.90
1307;DHT22;646;48.696;9.114;2022-11-18T01:31:53;7.90;99.90
1307;DHT22;646;48.696;9.114;2022-11-18T01:34:19;8.10;99.90
1307;DHT22;646;48.696;9.114;2022-11-18T01:36:44;8.30;99.90
1307;DHT22;646;48.696;9.114;2022-11-18T01:39:10;8.00;99.90
1307;DHT22;646;48.696;9.114;2022-11-18T01:41:36;8.00;99.90
1307;DHT22;646;48.696;9.114;2022-11-18T01:44:04;8.00;99.90
1307;DHT22;646;48.696;9.114;2022-11-18T01:46:32;8.30;99.90
1307;DHT22;646;48.696;9.114;2022-11-18T01:49:13;8.20;99.90
1307;DHT22;646;48.696;9.114;2022-11-18T01:51:49;7.50;99.90
1307;DHT22;646;48.696;9.114;2022-11-18T01:54:38;8.10;99.90
1307;DHT22;646;48.696;9.114;2022-11-18T01:57:09;7.90;99.90
1307;DHT22;646;48.696;9.114;2022-11-18T01:59:39;7.90;99.90
1307;DHT22;646;48.696;9.114;2022-11-18T02:02:09;8.00;99.90
1307;DHT22;646;48.696;9.114;2022-11-18T02:04:37;8.10;99.90
1307;DHT22;646;48.696;9.114;2022-11-18T02:07:03;7.50;99.90
1307;DHT22;646;48.696;9.114;2022-11-18T02:09:29;8.10;99.90
1307;DHT22;646;48.696;9.114;2022-11-18T02:11:55;7.40;99.90
1307;DHT22;646;48.696;9.114;2022-11-18T02:14:29;7.70;99.90
1307;DHT22;646;48.696;9.114;2022-11-18T02:17:23;8.10;99.90
1307;DHT22;646;48.696;9.114;2022-11-18T02:23:29;8.20;99.90
1307;DHT22;646;48.696;9.114;2022-11-18T02:31:29;8.30;99.90
1307;DHT22;646;48.696;9.114;2022-11-18T02:34:30;8.10;99.90
1307;DHT22;646;48.696;9.114;2022-11-18T02:39:39;8.10;99.90
1307;DHT22;646;48.696;9.114;2022-11-18T02:42:10;8.00;99.90
1307;DHT22;646;48.696;9.114;2022-11-18T02:44:39;7.60;99.90
1307;DHT22;646;48.696;9.114;2022-11-18T02:47:09;8.00;99.90
1307;DHT22;646;48.696;9.114;2022-11-18T02:49:39;7.80;99.90
1307;DHT22;646;48.696;9.114;2022-11-18T02:52:08;8.10;99.90
1307;DHT22;646;48.696;9.114;2022-11-18T02:54:37;8.10;99.90
1307;DHT22;646;48.696;9.114;2022-11-18T02:57:04;8.10;99.90
1307;DHT22;646;48.696;9.114;2022-11-18T02:59:30;7.60;99.90
1307;DHT22;646;48.696;9.114;2022-11-18T03:01:56;8.00;99.90
1307;DHT22;646;48.696;9.114;2022-11-18T03:04:22;7.80;99.90
1307;DHT22;646;48.696;9.114;2022-11-18T03:07:12;8.20;99.90
1307;DHT22;646;48.696;9.114;2022-11-18T03:09:43;7.50;99.90
1307;DHT22;646;48.696;9.114;2022-11-18T03:17:33;8.20;99.90
1307;DHT22;646;48.696;9.114;2022-11-18T03:20:18;8.20;99.90
1307;DHT22;646;48.696;9.114;2022-11-18T03:23:05;7.60;99.90
1307;DHT22;646;48.696;9.114;2022-11-18T03:28:13;8.30;99.90
1307;DHT22;646;48.696;9.114;2022-11-18T03:30:48;8.00;99.90
1307;DHT22;646;48.696;9.114;2022-11-18T03:33:19;7.90;99.90
1307;DHT22;646;48.696;9.114;2022-11-18T03:35:48;8.00;99.90
1307;DHT22;646;48.696;9.114;2022-11-18T03:38:19;8.20;99.90
1307;DHT22;646;48.696;9.114;2022-11-18T03:40:50;8.20;99.90
1307;DHT22;646;48.696;9.114;2022-11-18T03:43:21;7.90;99.90
1307;DHT22;646;48.696;9.114;2022-11-18T03:45:51;8.30;99.90
1307;DHT22;646;48.696;9.114;2022-11-18T03:48:24;8.10;99.90
1307;DHT22;646;48.696;9.114;2022-11-18T03:50:59;7.80;99.90
1307;DHT22;646;48.696;9.114;2022-11-18T03:53:29;8.00;99.90
1307;DHT22;646;48.696;9.114;2022-11-18T03:56:08;8.00;99.90
1307;DHT22;646;48.696;9.114;2022-11-18T03:58:38;7.80;99.90
1307;DHT22;646;48.696;9.114;2022-11-18T04:01:14;7.40;99.90
1307;DHT22;646;48.696;9.114;2022-11-18T04:03:41;8.00;99.90
1307;DHT22;646;48.696;9.114;2022-11-18T04:06:19;7.90;99.90
1307;DHT22;646;48.696;9.114;2022-11-18T04:08:49;7.70;99.90
1307;DHT22;646;48.696;9.114;2022-11-18T04:11:22;8.00;99.90
1307;DHT22;646;48.696;9.114;2022-11-18T04:14:09;7.90;99.90
1307;DHT22;646;48.696;9.114;2022-11-18T04:16:40;8.00;99.90
1307;DHT22;646;48.696;9.114;2022-11-18T04:19:06;7.80;99.90
1307;DHT22;646;48.696;9.114;2022-11-18T04:21:31;8.10;99.90
1307;DHT22;646;48.696;9.114;2022-11-18T04:23:57;8.00;99.90
1307;DHT22;646;48.696;9.114;2022-11-18T04:26:22;8.20;99.90
1307;DHT22;646;48.696;9.114;2022-11-18T04:28:48;7.50;99.90
1307;DHT22;646;48.696;9.114;2022-11-18T04:31:13;8.10;99.90
1307;DHT22;646;48.696;9.114;2022-11-18T04:33:39;7.30;99.90
1307;DHT22;646;48.696;9.114;2022-11-18T04:36:05;7.80;99.90
1307;DHT22;646;48.696;9.114;2022-11-18T04:38:30;7.90;99.90
1307;DHT22;646;48.696;9.114;2022-11-18T04:40:56;7.70;99.90
1307;DHT22;646;48.696;9.114;2022-11-18T04:43:21;7.20;99.90
1307;DHT22;646;48.696;9.114;2022-11-18T04:45:47;7.60;99.90
1307;DHT22;646;48.696;9.114;2022-11-18T04:48:12;7.60;99.90
1307;DHT22;646;48.696;9.114;2022-11-18T04:50:38;7.10;99.90
1307;DHT22;646;48.696;9.114;2022-11-18T04:53:03;7.20;99.90
1307;DHT22;646;48.696;9.114;2022-11-18T04:55:29;7.10;99.90
1307;DHT22;646;48.696;9.114;2022-11-18T04:57:54;7.60;99.90
1307;DHT22;646;48.696;9.114;2022-11-18T05:00:20;7.20;99.90
1307;DHT22;646;48.696;9.114;2022-11-18T05:02:47;6.90;99.90
1307;DHT22;646;48.696;9.114;2022-11-18T05:05:13;7.40;99.90
1307;DHT22;646;48.696;9.114;2022-11-18T05:07:38;7.20;99.90
1307;DHT22;646;48.696;9.114;2022-11-18T05:10:04;7.50;99.90
1307;DHT22;646;48.696;9.114;2022-11-18T05:12:30;7.40;99.90
1307;DHT22;646;48.696;9.114;2022-11-18T05:15:15;7.50;99.90
1307;DHT22;646;48.696;9.114;2022-11-18T05:17:41;7.30;99.90
1307;DHT22;646;48.696;9.114;2022-11-18T05:20:06;7.30;99.90
1307;DHT22;646;48.696;9.114;2022-11-18T05:22:32;7.40;99.90
1307;DHT22;646;48.696;9.114;2022-11-18T05:24:58;7.20;99.90
1307;DHT22;646;48.696;9.114;2022-11-18T05:27:23;7.30;99.90
1307;DHT22;646;48.696;9.114;2022-11-18T05:29:49;6.90;99.90
1307;DHT22;646;48.696;9.114;2022-11-18T05:32:14;7.40;99.90
1307;DHT22;646;48.696;9.114;2022-11-18T05:34:40;7.00;99.90
1307;DHT22;646;48.696;9.114;2022-11-18T05:37:06;7.40;99.90
1307;DHT22;646;48.696;9.114;2022-11-18T05:39:32;7.10;99.90
1307;DHT22;646;48.696;9.114;2022-11-18T05:41:58;7.40;99.90
1307;DHT22;646;48.696;9.114;2022-11-18T05:44:43;7.10;99.90
1307;DHT22;646;48.696;9.114;2022-11-18T05:47:08;7.00;99.90
1307;DHT22;646;48.696;9.114;2022-11-18T05:49:34;6.80;99.90
1307;DHT22;646;48.696;9.114;2022-11-18T05:52:00;7.40;99.90
1307;DHT22;646;48.696;9.114;2022-11-18T05:54:26;7.30;99.90
1307;DHT22;646;48.696;9.114;2022-11-18T05:56:52;6.60;99.90
1307;DHT22;646;48.696;9.114;2022-11-18T05:59:18;6.80;99.90
1307;DHT22;646;48.696;9.114;2022-11-18T06:01:59;7.20;99.90
1307;DHT22;646;48.696;9.114;2022-11-18T06:04:45;7.30;99.90
1307;DHT22;646;48.696;9.114;2022-11-18T06:07:26;7.20;99.90
1307;DHT22;646;48.696;9.114;2022-11-18T06:09:57;6.50;99.90
1307;DHT22;646;48.696;9.114;2022-11-18T06:12:26;7.20;99.90
1307;DHT22;646;48.696;9.114;2022-11-18T06:14:58;7.10;99.90
1307;DHT22;646;48.696;9.114;2022-11-18T06:17:27;6.70;99.90
1307;DHT22;646;48.696;9.114;2022-11-18T06:19:54;7.00;99.90
1307;DHT22;646;48.696;9.114;2022-11-18T06:22:21;7.10;99.90
1307;DHT22;646;48.696;9.114;2022-11-18T06:24:46;7.30;99.90
1307;DHT22;646;48.696;9.114;2022-11-18T06:27:13;7.10;99.90
1307;DHT22;646;48.696;9.114;2022-11-18T06:29:39;7.20;99.90
1307;DHT22;646;48.696;9.114;2022-11-18T06:32:05;6.70;99.90
1307;DHT22;646;48.696;9.114;2022-11-18T06:34:31;7.10;99.90
1307;DHT22;646;48.696;9.114;2022-11-18T06:36:56;7.10;99.90
1307;DHT22;646;48.696;9.114;2022-11-18T06:39:22;6.70;99.90
1307;DHT22;646;48.696;9.114;2022-11-18T06:41:47;7.20;99.90
1307;DHT22;646;48.696;9.114;2022-11-18T06:44:13;6.90;99.90
1307;DHT22;646;48.696;9.114;2022-11-18T06:46:38;7.00;99.90
1307;DHT22;646;48.696;9.114;2022-11-18T06:49:20;6.60;99.90
1307;DHT22;646;48.696;9.114;2022-11-18T06:51:45;6.90;99.90
1307;DHT22;646;48.696;9.114;2022-11-18T06:54:11;6.50;99.90
1307;DHT22;646;48.696;9.114;2022-11-18T06:56:37;7.10;99.90
1307;DHT22;646;48.696;9.114;2022-11-18T06:59:03;6.60;99.90
1307;DHT22;646;48.696;9.114;2022-11-18T07:01:30;6.80;99.90
1307;DHT22;646;48.696;9.114;2022-11-18T07:03:59;7.10;99.90
1307;DHT22;646;48.696;9.114;2022-11-18T07:06:27;7.10;99.90
1307;DHT22;646;48.696;9.114;2022-11-18T07:08:54;7.20;99.90
1307;DHT22;646;48.696;9.114;2022-11-18T07:11:22;7.30;99.90
1307;DHT22;646;48.696;9.114;2022-11-18T07:13:48;7.20;99.90
1307;DHT22;646;48.696;9.114;2022-11-18T07:16:18;6.90;99.90
1307;DHT22;646;48.696;9.114;2022-11-18T07:18:46;7.00;99.90
1307;DHT22;646;48.696;9.114;2022-11-18T07:21:14;6.90;99.90
1307;DHT22;646;48.696;9.114;2022-11-18T07:23:40;7.30;99.90
1307;DHT22;646;48.696;9.114;2022-11-18T07:26:06;7.40;99.90
1307;DHT22;646;48.696;9.114;2022-11-18T07:28:32;7.00;99.90
1307;DHT22;646;48.696;9.114;2022-11-18T07:31:05;6.80;99.90
1307;DHT22;646;48.696;9.114;2022-11-18T07:33:31;7.40;99.90
1307;DHT22;646;48.696;9.114;2022-11-18T07:36:05;6.90;99.90
1307;DHT22;646;48.696;9.114;2022-11-18T07:38:31;7.70;99.90
1307;DHT22;646;48.696;9.114;2022-11-18T07:43:31;7.50;99.90
1307;DHT22;646;48.696;9.114;2022-11-18T07:45:56;7.80;99.90
1307;DHT22;646;48.696;9.114;2022-11-18T07:48:22;7.60;99.90
1307;DHT22;646;48.696;9.114;2022-11-18T07:50:47;7.00;99.90
1307;DHT22;646;48.696;9.114;2022-11-18T07:53:12;7.10;99.90
1307;DHT22;646;48.696;9.114;2022-11-18T07:55:38;7.80;99.90
1307;DHT22;646;48.696;9.114;2022-11-18T07:58:04;7.10;99.90
1307;DHT22;646;48.696;9.114;2022-11-18T08:00:29;7.70;99.90
1307;DHT22;646;48.696;9.114;2022-11-18T08:02:55;7.50;99.90
1307;DHT22;646;48.696;9.114;2022-11-18T08:05:20;7.80;99.90
1307;DHT22;646;48.696;9.114;2022-11-18T08:07:46;7.30;99.90
1307;DHT22;646;48.696;9.114;2022-11-18T08:10:11;7.30;99.90
1307;DHT22;646;48.696;9.114;2022-11-18T08:12:37;7.80;99.90
1307;DHT22;646;48.696;9.114;2022-11-18T08:15:02;7.40;99.90
1307;DHT22;646;48.696;9.114;2022-11-18T08:17:28;8.20;99.90
1307;DHT22;646;48.696;9.114;2022-11-18T08:19:54;7.40;99.90
1307;DHT22;646;48.696;9.114;2022-11-18T08:22:19;7.30;99.90
1307;DHT22;646;48.696;9.114;2022-11-18T08:24:46;7.70;99.90
1307;DHT22;646;48.696;9.114;2022-11-18T08:27:12;8.00;99.90
1307;DHT22;646;48.696;9.114;2022-11-18T08:29:38;8.30;99.90
1307;DHT22;646;48.696;9.114;2022-11-18T08:32:05;8.10;99.90
1307;DHT22;646;48.696;9.114;2022-11-18T08:34:30;7.60;99.90
1307;DHT22;646;48.696;9.114;2022-11-18T08:36:56;8.00;99.90
1307;DHT22;646;48.696;9.114;2022-11-18T08:39:21;8.00;99.90
1307;DHT22;646;48.696;9.114;2022-11-18T08:41:47;7.50;99.90
1307;DHT22;646;48.696;9.114;2022-11-18T08:44:15;7.80;99.90
1307;DHT22;646;48.696;9.114;2022-11-18T08:46:41;7.60;99.90
1307;DHT22;646;48.696;9.114;2022-11-18T08:49:07;8.60;99.90
1307;DHT22;646;48.696;9.114;2022-11-18T08:51:32;7.90;99.90
1307;DHT22;646;48.696;9.114;2022-11-18T08:53:58;7.90;99.90
1307;DHT22;646;48.696;9.114;2022-11-18T08:56:24;7.90;99.90
1307;DHT22;646;48.696;9.114;2022-11-18T08:58:51;8.30;99.90
1307;DHT22;646;48.696;9.114;2022-11-18T09:01:16;8.20;99.90
1307;DHT22;646;48.696;9.114;2022-11-18T09:03:42;8.60;99.90
1307;DHT22;646;48.696;9.114;2022-11-18T09:06:15;8.20;99.90
1307;DHT22;646;48.696;9.114;2022-11-18T09:08:41;8.70;99.90
1307;DHT22;646;48.696;9.114;2022-11-18T09:11:12;8.70;99.90
1307;DHT22;646;48.696;9.114;2022-11-18T09:13:38;9.10;99.90
1307;DHT22;646;48.696;9.114;2022-11-18T09:16:04;8.90;99.90
1307;DHT22;646;48.696;9.114;2022-11-18T09:18:31;9.00;99.90
1307;DHT22;646;48.696;9.114;2022-11-18T09:20:59;8.50;99.90
1307;DHT22;646;48.696;9.114;2022-11-18T09:23:25;9.10;99.90
1307;DHT22;646;48.696;9.114;2022-11-18T09:26:05;8.50;99.90
1307;DHT22;646;48.696;9.114;2022-11-18T09:28:31;8.60;99.90
1307;DHT22;646;48.696;9.114;2022-11-18T09:30:56;8.30;99.90
1307;DHT22;646;48.696;9.114;2022-11-18T09:33:22;9.10;99.90
1307;DHT22;646;48.696;9.114;2022-11-18T09:35:48;8.90;99.90
1307;DHT22;646;48.696;9.114;2022-11-18T09:38:13;8.80;99.90
1307;DHT22;646;48.696;9.114;2022-11-18T09:40:59;9.30;99.90
1307;DHT22;646;48.696;9.114;2022-11-18T09:48:50;9.60;99.90
1307;DHT22;646;48.696;9.114;2022-11-18T09:51:39;9.90;99.90
1307;DHT22;646;48.696;9.114;2022-11-18T09:54:19;9.50;99.90
1307;DHT22;646;48.696;9.114;2022-11-18T09:56:46;9.80;99.90
1307;DHT22;646;48.696;9.114;2022-11-18T09:59:13;9.60;99.90
1307;DHT22;646;48.696;9.114;2022-11-18T10:01:40;9.90;99.90
1307;DHT22;646;48.696;9.114;2022-11-18T10:04:15;9.50;99.90
1307;DHT22;646;48.696;9.114;2022-11-18T10:06:41;10.00;99.90
1307;DHT22;646;48.696;9.114;2022-11-18T10:12:11;9.90;99.90
1307;DHT22;646;48.696;9.114;2022-11-18T10:14:45;9.30;99.90
1307;DHT22;646;48.696;9.114;2022-11-18T10:25:40;9.90;99.90
1307;DHT22;646;48.696;9.114;2022-11-18T10:28:27;9.20;99.90
1307;DHT22;646;48.696;9.114;2022-11-18T10:31:07;9.80;99.90
1307;DHT22;646;48.696;9.114;2022-11-18T10:33:33;9.80;99.90
1307;DHT22;646;48.696;9.114;2022-11-18T10:36:32;10.20;99.90
1307;DHT22;646;48.696;9.114;2022-11-18T10:39:12;9.60;99.90
1307;DHT22;646;48.696;9.114;2022-11-18T10:41:45;10.10;99.90
1307;DHT22;646;48.696;9.114;2022-11-18T10:44:40;9.90;99.90
1307;DHT22;646;48.696;9.114;2022-11-18T10:47:26;10.10;99.90
1307;DHT22;646;48.696;9.114;2022-11-18T10:49:55;9.70;99.90
1307;DHT22;646;48.696;9.114;2022-11-18T10:52:21;10.20;99.90
1307;DHT22;646;48.696;9.114;2022-11-18T10:55:06;9.70;99.90
1307;DHT22;646;48.696;9.114;2022-11-18T10:57:36;9.70;99.90
1307;DHT22;646;48.696;9.114;2022-11-18T11:00:04;9.80;99.90
1307;DHT22;646;48.696;9.114;2022-11-18T11:02:32;10.30;99.90
1307;DHT22;646;48.696;9.114;2022-11-18T11:05:02;10.20;99.90
1307;DHT22;646;48.696;9.114;2022-11-18T11:12:41;10.30;99.90
1307;DHT22;646;48.696;9.114;2022-11-18T11:15:38;10.00;99.90
1307;DHT22;646;48.696;9.114;2022-11-18T11:18:11;10.50;99.90
1307;DHT22;646;48.696;9.114;2022-11-18T11:20:57;10.80;99.90
1307;DHT22;646;48.696;9.114;2022-11-18T11:23:23;10.50;99.90
1307;DHT22;646;48.696;9.114;2022-11-18T11:26:07;10.40;99.90
1307;DHT22;646;48.696;9.114;2022-11-18T11:28:43;11.30;99.90
1307;DHT22;646;48.696;9.114;2022-11-18T11:31:44;10.50;99.90
1307;DHT22;646;48.696;9.114;2022-11-18T11:34:25;11.10;99.90
1307;DHT22;646;48.696;9.114;2022-11-18T11:39:52;10.90;99.90
1307;DHT22;646;48.696;9.114;2022-11-18T11:48:23;11.10;99.90
1307;DHT22;646;48.696;9.114;2022-11-18T11:50:57;12.50;99.90
1307;DHT22;646;48.696;9.114;2022-11-18T11:53:51;12.70;99.90
1307;DHT22;646;48.696;9.114;2022-11-18T11:59:39;12.50;99.90
1307;DHT22;646;48.696;9.114;2022-11-18T12:07:32;14.60;99.90
1307;DHT22;646;48.696;9.114;2022-11-18T12:10:24;13.80;99.90
1307;DHT22;646;48.696;9.114;2022-11-18T12:15:54;13.40;99.90
1307;DHT22;646;48.696;9.114;2022-11-18T12:18:42;13.20;99.90
1307;DHT22;646;48.696;9.114;2022-11-18T12:26:42;11.80;99.90
1307;DHT22;646;48.696;9.114;2022-11-18T12:31:53;11.30;99.90
1307;DHT22;646;48.696;9.114;2022-11-18T12:34:41;11.20;99.90
1307;DHT22;646;48.696;9.114;2022-11-18T12:39:59;10.50;99.90
1307;DHT22;646;48.696;9.114;2022-11-18T12:42:54;10.20;99.90
1307;DHT22;646;48.696;9.114;2022-11-18T12:50:52;9.70;99.90
1307;DHT22;646;48.696;9.114;2022-11-18T12:53:52;10.30;99.90
1307;DHT22;646;48.696;9.114;2022-11-18T12:58:49;11.00;99.90
1307;DHT22;646;48.696;9.114;2022-11-18T13:01:18;11.10;99.90
1307;DHT22;646;48.696;9.114;2022-11-18T13:03:43;11.80;99.90
1307;DHT22;646;48.696;9.114;2022-11-18T13:06:19;14.60;99.90
1307;DHT22;646;48.696;9.114;2022-11-18T13:08:51;17.10;99.90
1307;DHT22;646;48.696;9.114;2022-11-18T13:11:18;19.30;99.90
1307;DHT22;646;48.696;9.114;2022-11-18T13:14:04;19.80;99.90
1307;DHT22;646;48.696;9.114;2022-11-18T13:16:49;18.90;99.90
1307;DHT22;646;48.696;9.114;2022-11-18T13:19:33;18.20;99.90
1307;DHT22;646;48.696;9.114;2022-11-18T13:22:01;17.20;99.90
1307;DHT22;646;48.696;9.114;2022-11-18T13:24:47;16.30;99.90
1307;DHT22;646;48.696;9.114;2022-11-18T13:27:35;15.90;99.90
1307;DHT22;646;48.696;9.114;2022-11-18T13:30:09;14.80;99.90
1307;DHT22;646;48.696;9.114;2022-11-18T13:32:35;14.10;99.90
1307;DHT22;646;48.696;9.114;2022-11-18T13:35:21;13.10;99.90
1307;DHT22;646;48.696;9.114;2022-11-18T13:37:53;13.00;99.90
1307;DHT22;646;48.696;9.114;2022-11-18T13:40:28;15.10;99.90
1307;DHT22;646;48.696;9.114;2022-11-18T13:42:54;16.30;99.90
1307;DHT22;646;48.696;9.114;2022-11-18T13:45:24;17.90;99.90
1307;DHT22;646;48.696;9.114;2022-11-18T13:47:56;20.10;99.90
1307;DHT22;646;48.696;9.114;2022-11-18T13:53:03;20.40;94.50
1307;DHT22;646;48.696;9.114;2022-11-18T13:55:35;20.60;85.60
1307;DHT22;646;48.696;9.114;2022-11-18T13:58:30;21.00;84.50
1307;DHT22;646;48.696;9.114;2022-11-18T14:01:02;21.80;91.30
1307;DHT22;646;48.696;9.114;2022-11-18T14:05:57;22.40;77.10
1307;DHT22;646;48.696;9.114;2022-11-18T14:08:31;22.70;78.50
1307;DHT22;646;48.696;9.114;2022-11-18T14:10:58;22.40;63.00
1307;DHT22;646;48.696;9.114;2022-11-18T14:13:32;22.50;68.60
1307;DHT22;646;48.696;9.114;2022-11-18T14:16:00;22.00;62.50
1307;DHT22;646;48.696;9.114;2022-11-18T14:18:33;21.30;66.60
1307;DHT22;646;48.696;9.114;2022-11-18T14:21:00;20.50;65.30
1307;DHT22;646;48.696;9.114;2022-11-18T14:23:32;20.80;73.30
1307;DHT22;646;48.696;9.114;2022-11-18T14:26:00;20.80;71.30
1307;DHT22;646;48.696;9.114;2022-11-18T14:28:28;19.40;67.20
1307;DHT22;646;48.696;9.114;2022-11-18T14:33:36;17.20;63.40
1307;DHT22;646;48.696;9.114;2022-11-18T14:36:14;16.10;66.20
1307;DHT22;646;48.696;9.114;2022-11-18T14:38:44;14.50;66.40
1307;DHT22;646;48.696;9.114;2022-11-18T14:41:12;13.80;69.70
1307;DHT22;646;48.696;9.114;2022-11-18T14:43:38;13.20;73.20
1307;DHT22;646;48.696;9.114;2022-11-18T14:46:24;13.00;78.10
1307;DHT22;646;48.696;9.114;2022-11-18T14:48:50;13.40;83.80
1307;DHT22;646;48.696;9.114;2022-11-18T14:51:16;12.80;94.30
1307;DHT22;646;48.696;9.114;2022-11-18T14:53:42;12.50;93.40
1307;DHT22;646;48.696;9.114;2022-11-18T14:56:16;11.90;93.40
1307;DHT22;646;48.696;9.114;2022-11-18T14:58:45;11.80;93.60
1307;DHT22;646;48.696;9.114;2022-11-18T15:01:11;11.20;93.80
1307;DHT22;646;48.696;9.114;2022-11-18T15:03:37;11.10;95.30
1307;DHT22;646;48.696;9.114;2022-11-18T15:06:05;10.60;96.00
1307;DHT22;646;48.696;9.114;2022-11-18T15:08:30;10.80;97.80
1307;DHT22;646;48.696;9.114;2022-11-18T15:10:56;10.60;99.10
1307;DHT22;646;48.696;9.114;2022-11-18T15:13:21;10.30;99.90
1307;DHT22;646;48.696;9.114;2022-11-18T15:15:47;9.20;99.90
1307;DHT22;646;48.696;9.114;2022-11-18T15:18:12;8.90;99.90
1307;DHT22;646;48.696;9.114;2022-11-18T15:20:38;8.70;99.90
1307;DHT22;646;48.696;9.114;2022-11-18T15:23:03;9.20;99.90
1307;DHT22;646;48.696;9.114;2022-11-18T15:25:29;8.60;99.90
1307;DHT22;646;48.696;9.114;2022-11-18T15:27:54;8.40;99.90
1307;DHT22;646;48.696;9.114;2022-11-18T15:30:20;8.60;99.90
1307;DHT22;646;48.696;9.114;2022-11-18T15:32:46;8.80;99.90
1307;DHT22;646;48.696;9.114;2022-11-18T15:35:12;8.60;99.90
1307;DHT22;646;48.696;9.114;2022-11-18T15:37:39;8.50;99.90
1307;DHT22;646;48.696;9.114;2022-11-18T15:40:05;8.40;99.90
1307;DHT22;646;48.696;9.114;2022-11-18T15:42:30;8.80;99.90
1307;DHT22;646;48.696;9.114;2022-11-18T15:44:56;8.80;99.90
1307;DHT22;646;48.696;9.114;2022-11-18T15:47:21;8.40;99.90
1307;DHT22;646;48.696;9.114;2022-11-18T15:49:47;8.80;99.90
1307;DHT22;646;48.696;9.114;2022-11-18T15:52:12;8.80;99.90
1307;DHT22;646;48.696;9.114;2022-11-18T15:54:38;8.40;99.90
1307;DHT22;646;48.696;9.114;2022-11-18T15:57:04;8.90;99.90
1307;DHT22;646;48.696;9.114;2022-11-18T15:59:29;8.90;99.90
1307;DHT22;646;48.696;9.114;2022-11-18T16:01:55;8.10;99.90
1307;DHT22;646;48.696;9.114;2022-11-18T16:04:21;8.90;99.90
1307;DHT22;646;48.696;9.114;2022-11-18T16:06:47;8.10;99.90
1307;DHT22;646;48.696;9.114;2022-11-18T16:09:14;8.10;99.90
1307;DHT22;646;48.696;9.114;2022-11-18T16:11:40;8.80;99.90
1307;DHT22;646;48.696;9.114;2022-11-18T16:14:24;8.20;99.90
1307;DHT22;646;48.696;9.114;2022-11-18T16:16:52;8.10;99.90
1307;DHT22;646;48.696;9.114;2022-11-18T16:19:20;7.90;99.90
1307;DHT22;646;48.696;9.114;2022-11-18T16:21:49;8.70;99.90
1307;DHT22;646;48.696;9.114;2022-11-18T16:24:18;8.10;99.90
1307;DHT22;646;48.696;9.114;2022-11-18T16:26:44;7.60;99.90
1307;DHT22;646;48.696;9.114;2022-11-18T16:29:11;7.50;99.90
1307;DHT22;646;48.696;9.114;2022-11-18T16:31:37;7.70;99.90
1307;DHT22;646;48.696;9.114;2022-11-18T16:34:11;7.40;99.90
1307;DHT22;646;48.696;9.114;2022-11-18T16:36:38;7.60;99.90
1307;DHT22;646;48.696;9.114;2022-11-18T16:39:09;7.60;99.90
1307;DHT22;646;48.696;9.114;2022-11-18T16:41:35;7.40;99.90
1307;DHT22;646;48.696;9.114;2022-11-18T16:44:07;6.70;99.90
1307;DHT22;646;48.696;9.114;2022-11-18T16:46:35;7.40;99.90
1307;DHT22;646;48.696;9.114;2022-11-18T16:49:02;7.00;99.90
1307;DHT22;646;48.696;9.114;2022-11-18T16:51:29;7.20;99.90
1307;DHT22;646;48.696;9.114;2022-11-18T16:53:57;7.50;99.90
1307;DHT22;646;48.696;9.114;2022-11-18T16:56:25;6.70;99.90
1307;DHT22;646;48.696;9.114;2022-11-18T16:58:56;7.30;99.90
1307;DHT22;646;48.696;9.114;2022-11-18T17:01:22;6.80;99.90
1307;DHT22;646;48.696;9.114;2022-11-18T17:03:49;7.00;99.90
1307;DHT22;646;48.696;9.114;2022-11-18T17:06:16;7.10;99.90
1307;DHT22;646;48.696;9.114;2022-11-18T17:08:41;6.50;99.90
1307;DHT22;646;48.696;9.114;2022-11-18T17:11:08;6.40;99.90
1307;DHT22;646;48.696;9.114;2022-11-18T17:13:35;6.40;99.90
1307;DHT22;646;48.696;9.114;2022-11-18T17:16:06;6.90;99.90
1307;DHT22;646;48.696;9.114;2022-11-18T17:18:32;6.70;99.90
1307;DHT22;646;48.696;9.114;2022-11-18T17:21:04;6.90;99.90
1307;DHT22;646;48.696;9.114;2022-11-18T17:23:30;6.80;99.90
1307;DHT22;646;48.696;9.114;2022-11-18T17:25:56;6.50;99.90
1307;DHT22;646;48.696;9.114;2022-11-18T17:28:22;6.90;99.90
1307;DHT22;646;48.696;9.114;2022-11-18T17:30:47;6.60;99.90
1307;DHT22;646;48.696;9.114;2022-11-18T17:33:13;6.20;99.90
1307;DHT22;646;48.696;9.114;2022-11-18T17:35:39;6.30;99.90
1307;DHT22;646;48.696;9.114;2022-11-18T17:38:04;6.20;99.90
1307;DHT22;646;48.696;9.114;2022-11-18T17:40:30;6.00;99.90
1307;DHT22;646;48.696;9.114;2022-11-18T17:42:55;6.50;99.90
1307;DHT22;646;48.696;9.114;2022-11-18T17:45:21;6.10;99.90
1307;DHT22;646;48.696;9.114;2022-11-18T17:47:46;6.20;99.90
1307;DHT22;646;48.696;9.114;2022-11-18T17:50:12;6.60;99.90
1307;DHT22;646;48.696;9.114;2022-11-18T17:52:38;6.70;99.90
1307;DHT22;646;48.696;9.114;2022-11-18T17:55:04;6.60;99.90
1307;DHT22;646;48.696;9.114;2022-11-18T17:57:31;6.80;99.90
1307;DHT22;646;48.696;9.114;2022-11-18T17:59:56;6.00;99.90
1307;DHT22;646;48.696;9.114;2022-11-18T18:02:22;5.80;99.90
1307;DHT22;646;48.696;9.114;2022-11-18T18:04:47;6.30;99.90
1307;DHT22;646;48.696;9.114;2022-11-18T18:07:13;6.40;99.90
1307;DHT22;646;48.696;9.114;2022-11-18T18:09:39;6.50;99.90
1307;DHT22;646;48.696;9.114;2022-11-18T18:12:04;6.40;99.90
1307;DHT22;646;48.696;9.114;2022-11-18T18:14:50;6.30;99.90
1307;DHT22;646;48.696;9.114;2022-11-18T18:17:16;6.20;99.90
1307;DHT22;646;48.696;9.114;2022-11-18T18:19:41;6.30;99.90
1307;DHT22;646;48.696;9.114;2022-11-18T18:22:07;6.20;99.90
1307;DHT22;646;48.696;9.114;2022-11-18T18:24:33;6.20;99.90
1307;DHT22;646;48.696;9.114;2022-11-18T18:26:58;5.90;99.90